Time,TemperatureF,DewpointF,PressureIn,WindDirection,WindDirectionDegrees,WindSpeedMPH,WindSpeedGustMPH,Humidity,HourlyPrecipIn,Conditions,Clouds,dailyrainin,SoftwareType,DateUTC
2013-05-11 00:00:00,63.9,61.2,29.90,NW,321,1.0,7.0,91,0.21,,CLR,0.01,VWS V14.00,2013-05-11 04:00:00,
2013-05-11 00:01:00,63.9,61.2,29.90,NW,321,1.0,7.0,91,0.21,,-RA,0.01,VWS V14.00,2013-05-11 04:01:00,
2013-05-11 00:02:00,63.8,61.1,29.91,SW,226,0.0,6.0,91,0.23,,-RA,0.03,VWS V14.00,2013-05-11 04:02:00,
2013-05-11 00:04:00,63.7,61.0,29.91,NW,308,2.0,6.0,91,0.23,,-RA,0.03,VWS V14.00,2013-05-11 04:04:00,
2013-05-11 00:05:00,63.7,61.0,29.90,WNW,300,6.0,8.0,91,0.25,,-RA,0.05,VWS V14.00,2013-05-11 04:05:00,
2013-05-11 00:07:00,63.7,61.0,29.90,North,351,2.0,8.0,91,0.29,,-RA,0.09,VWS V14.00,2013-05-11 04:07:00,
2013-05-11 00:12:00,63.6,61.2,29.90,WSW,245,1.0,9.0,92,0.29,,BKN055,0.09,VWS V14.00,2013-05-11 04:12:00,
2013-05-11 00:17:00,63.5,61.1,29.89,West,278,0.0,9.0,92,0.29,,BKN055,0.09,VWS V14.00,2013-05-11 04:17:00,
2013-05-11 00:22:00,63.5,61.1,29.90,WNW,295,3.0,9.0,92,0.29,,BKN055,0.09,VWS V14.00,2013-05-11 04:22:00,
2013-05-11 00:27:00,63.4,61.0,29.90,WNW,287,1.0,9.0,92,0.29,,BKN055,0.09,VWS V14.00,2013-05-11 04:27:00,
2013-05-11 00:30:00,63.4,61.0,29.91,SW,215,0.0,9.0,92,0.30,,CLR,0.10,VWS V14.00,2013-05-11 04:30:00,
2013-05-11 00:32:00,63.4,61.0,29.91,SSW,194,0.0,4.0,92,0.28,,-RA,0.10,VWS V14.00,2013-05-11 04:32:00,
2013-05-11 00:37:00,63.4,61.0,29.90,WSW,253,0.0,4.0,92,0.29,,-RA,0.11,VWS V14.00,2013-05-11 04:37:00,
2013-05-11 00:42:00,63.3,60.9,29.90,WNW,283,2.0,4.0,92,0.31,, +RA,0.13,VWS V14.00,2013-05-11 04:42:00,
2013-05-11 00:47:00,63.2,60.8,29.89,NNW,328,2.0,4.0,92,0.31,, +RA,0.13,VWS V14.00,2013-05-11 04:47:00,
2013-05-11 00:52:00,63.2,61.2,29.90,SE,143,2.0,4.0,93,0.32,,RA,0.14,VWS V14.00,2013-05-11 04:52:00,
2013-05-11 00:57:00,63.2,61.2,29.90,SW,224,0.0,4.0,93,0.34,,RA,0.16,VWS V14.00,2013-05-11 04:57:00,
2013-05-11 01:00:00,63.1,61.0,29.89,WNW,283,0.0,4.0,93,0.34,,CLR,0.16,VWS V14.00,2013-05-11 05:00:00,
2013-05-11 01:02:00,63.1,61.0,29.90,SSW,195,0.0,1.0,93,0.16,,RA,0.17,VWS V14.00,2013-05-11 05:02:00,
2013-05-11 01:07:00,63.1,61.0,29.90,ESE,108,1.0,4.0,93,0.17,,RA,0.18,VWS V14.00,2013-05-11 05:07:00,
2013-05-11 01:12:00,63.0,61.0,29.89,West,281,1.0,4.0,93,0.19,,RA,0.20,VWS V14.00,2013-05-11 05:12:00,
2013-05-11 01:17:00,62.9,60.8,29.89,ESE,102,0.0,4.0,93,0.20,,RA,0.21,VWS V14.00,2013-05-11 05:17:00,
2013-05-11 01:22:00,62.8,60.8,29.88,ESE,105,2.0,4.0,93,0.20,,RA,0.21,VWS V14.00,2013-05-11 05:22:00,
2013-05-11 01:27:00,62.8,60.8,29.87,ENE,75,2.0,4.0,93,0.21,,RA,0.22,VWS V14.00,2013-05-11 05:27:00,
2013-05-11 01:30:00,62.8,60.8,29.86,NE,53,0.0,4.0,93,0.22,,CLR,0.23,VWS V14.00,2013-05-11 05:30:00,
2013-05-11 01:32:00,62.8,60.8,29.85,NNE,12,0.0,2.0,93,0.13,,RA,0.23,VWS V14.00,2013-05-11 05:32:00,
2013-05-11 01:37:00,62.6,60.5,29.86,SSW,205,2.0,3.0,93,0.14,,RA,0.24,VWS V14.00,2013-05-11 05:37:00,
2013-05-11 01:42:00,62.6,60.5,29.88,SSW,207,2.0,3.0,93,0.14,,-RA,0.24,VWS V14.00,2013-05-11 05:42:00,
2013-05-11 01:47:00,62.6,60.8,29.89,SW,233,1.0,3.0,94,0.14,,-RA,0.24,VWS V14.00,2013-05-11 05:47:00,
2013-05-11 01:52:00,62.6,60.5,29.88,South,176,3.0,3.0,93,0.15,,-RA,0.25,VWS V14.00,2013-05-11 05:52:00,
2013-05-11 01:58:00,62.6,60.8,29.89,SSW,207,1.0,4.0,94,0.16,,-RA,0.26,VWS V14.00,2013-05-11 05:58:00,
2013-05-11 02:00:00,62.6,60.8,29.88,South,191,2.0,4.0,94,0.16,,CLR,0.26,VWS V14.00,2013-05-11 06:00:00,
2013-05-11 02:03:00,62.6,60.8,29.88,South,188,2.0,2.0,94,0.11,,RA,0.27,VWS V14.00,2013-05-11 06:03:00,
2013-05-11 02:08:00,62.6,60.8,29.89,SSW,204,2.0,3.0,94,0.12,,RA,0.28,VWS V14.00,2013-05-11 06:08:00,
2013-05-11 02:13:00,62.6,60.8,29.89,SSW,207,3.0,3.0,94,0.12,,RA,0.28,VWS V14.00,2013-05-11 06:13:00,
2013-05-11 02:18:00,62.6,60.8,29.88,SSW,211,1.0,3.0,94,0.13,,RA,0.29,VWS V14.00,2013-05-11 06:18:00,
2013-05-11 02:23:00,62.5,60.8,29.87,SSW,208,2.0,3.0,94,0.14,,RA,0.30,VWS V14.00,2013-05-11 06:23:00,
2013-05-11 02:28:00,62.4,60.7,29.88,SSW,208,0.0,3.0,94,0.15,,RA,0.31,VWS V14.00,2013-05-11 06:28:00,
2013-05-11 02:30:00,62.4,60.7,29.88,SSW,207,1.0,3.0,94,0.15,,CLR,0.31,VWS V14.00,2013-05-11 06:30:00,
2013-05-11 02:33:00,62.4,60.7,29.86,SSW,208,0.0,1.0,94,0.08,,RA,0.31,VWS V14.00,2013-05-11 06:33:00,
2013-05-11 02:38:00,62.3,60.6,29.85,East,83,0.0,2.0,94,0.08,,RA,0.31,VWS V14.00,2013-05-11 06:38:00,
2013-05-11 02:43:00,62.3,60.6,29.85,East,83,0.0,2.0,94,0.08,,RA,0.31,VWS V14.00,2013-05-11 06:43:00,
2013-05-11 02:48:00,62.1,60.4,29.85,SE,134,1.0,2.0,94,0.08,,RA,0.31,VWS V14.00,2013-05-11 06:48:00,
2013-05-11 02:53:00,62.1,60.4,29.84,SSE,158,2.0,2.0,94,0.08,,RA,0.31,VWS V14.00,2013-05-11 06:53:00,
2013-05-11 02:58:00,62.0,60.3,29.84,SSE,166,1.0,3.0,94,0.08,,RA,0.31,VWS V14.00,2013-05-11 06:58:00,
2013-05-11 03:00:00,62.0,60.3,29.84,SSE,152,2.0,3.0,94,0.08,,CLR,0.31,VWS V14.00,2013-05-11 07:00:00,
2013-05-11 03:03:00,62.0,60.3,29.84,South,186,2.0,2.0,94,0.05,,,0.31,VWS V14.00,2013-05-11 07:03:00,
2013-05-11 03:08:00,61.9,60.5,29.84,South,183,2.0,3.0,95,0.05,,,0.31,VWS V14.00,2013-05-11 07:08:00,
2013-05-11 03:13:00,62.0,60.6,29.84,SSW,194,3.0,4.0,95,0.05,,-RA,0.31,VWS V14.00,2013-05-11 07:13:00,
2013-05-11 03:18:00,62.0,60.6,29.84,SSE,166,4.0,4.0,95,0.05,,-RA,0.31,VWS V14.00,2013-05-11 07:18:00,
2013-05-11 03:23:00,62.0,60.6,29.84,South,170,2.0,5.0,95,0.05,,-RA,0.31,VWS V14.00,2013-05-11 07:23:00,
2013-05-11 03:28:00,62.1,60.7,29.84,South,177,3.0,5.0,95,0.05,,-RA,0.31,VWS V14.00,2013-05-11 07:28:00,
2013-05-11 03:30:00,62.1,60.7,29.84,SSW,197,3.0,5.0,95,0.05,,CLR,0.31,VWS V14.00,2013-05-11 07:30:00,
2013-05-11 03:34:00,62.1,60.7,29.84,SSW,194,2.0,5.0,95,0.00,,-RA,0.31,VWS V14.00,2013-05-11 07:34:00,
2013-05-11 03:39:00,62.2,60.8,29.84,South,180,2.0,5.0,95,0.00,,-RA,0.31,VWS V14.00,2013-05-11 07:39:00,
2013-05-11 03:44:00,62.2,60.8,29.84,SSW,193,2.0,5.0,95,0.00,,-RA,0.31,VWS V14.00,2013-05-11 07:44:00,
2013-05-11 03:49:00,62.2,60.8,29.84,South,179,2.0,5.0,95,0.00,,-RA,0.31,VWS V14.00,2013-05-11 07:49:00,
2013-05-11 03:54:00,62.2,60.8,29.84,SSW,200,2.0,5.0,95,0.01,,-RA,0.32,VWS V14.00,2013-05-11 07:54:00,
2013-05-11 03:59:00,62.1,60.7,29.84,South,184,2.0,5.0,95,0.01,,-RA,0.32,VWS V14.00,2013-05-11 07:59:00,
2013-05-11 04:00:00,62.1,60.7,29.84,SSW,204,2.0,5.0,95,0.01,,CLR,0.32,VWS V14.00,2013-05-11 08:00:00,
2013-05-11 04:04:00,62.2,60.8,29.84,South,180,3.0,5.0,95,0.01,,-RA,0.32,VWS V14.00,2013-05-11 08:04:00,
2013-05-11 04:09:00,62.2,60.5,29.84,South,188,2.0,5.0,94,0.01,,-RA,0.32,VWS V14.00,2013-05-11 08:09:00,
2013-05-11 04:14:00,62.2,60.5,29.84,SSW,212,2.0,5.0,94,0.01,,-RA,0.32,VWS V14.00,2013-05-11 08:14:00,
2013-05-11 04:19:00,62.2,60.5,29.84,SSW,198,2.0,5.0,94,0.01,,-RA,0.32,VWS V14.00,2013-05-11 08:19:00,
2013-05-11 04:24:00,62.3,60.6,29.83,ESE,123,3.0,5.0,94,0.01,,-RA,0.32,VWS V14.00,2013-05-11 08:24:00,
2013-05-11 04:29:00,62.3,60.6,29.82,SW,215,3.0,5.0,94,0.01,,-RA,0.32,VWS V14.00,2013-05-11 08:29:00,
2013-05-11 04:30:00,62.3,60.6,29.82,SSW,207,3.0,5.0,94,0.01,,CLR,0.32,VWS V14.00,2013-05-11 08:30:00,
2013-05-11 04:34:00,62.4,60.7,29.82,SW,216,2.0,3.0,94,0.01,,-RA,0.32,VWS V14.00,2013-05-11 08:34:00,
2013-05-11 04:39:00,62.4,60.7,29.83,South,172,3.0,3.0,94,0.01,,-RA,0.32,VWS V14.00,2013-05-11 08:39:00,
2013-05-11 04:44:00,62.4,60.7,29.82,South,186,2.0,3.0,94,0.01,,-RA,0.32,VWS V14.00,2013-05-11 08:44:00,
2013-05-11 04:49:00,62.4,60.7,29.82,South,188,2.0,5.0,94,0.01,,-RA,0.32,VWS V14.00,2013-05-11 08:49:00,
2013-05-11 04:54:00,62.5,60.8,29.81,SW,214,2.0,5.0,94,0.01,,-RA,0.32,VWS V14.00,2013-05-11 08:54:00,
2013-05-11 04:59:00,62.5,60.8,29.81,SSW,205,3.0,5.0,94,0.01,,-RA,0.32,VWS V14.00,2013-05-11 08:59:00,
2013-05-11 05:00:00,62.5,60.8,29.81,SSW,193,2.0,5.0,94,0.01,,CLR,0.32,VWS V14.00,2013-05-11 09:00:00,
2013-05-11 05:04:00,62.5,60.8,29.81,SSW,211,1.0,3.0,94,0.00,,OVC100,0.32,VWS V14.00,2013-05-11 09:04:00,
2013-05-11 05:09:00,62.5,60.8,29.81,SSW,193,2.0,3.0,94,0.00,,OVC100,0.32,VWS V14.00,2013-05-11 09:09:00,
2013-05-11 05:14:00,62.5,60.8,29.80,South,191,2.0,5.0,94,0.00,,OVC100,0.32,VWS V14.00,2013-05-11 09:14:00,
2013-05-11 05:19:00,62.5,60.8,29.80,SSW,207,1.0,5.0,94,0.00,,OVC100,0.32,VWS V14.00,2013-05-11 09:19:00,
2013-05-11 05:24:00,62.5,60.8,29.80,SSW,207,1.0,5.0,94,0.00,,OVC100,0.32,VWS V14.00,2013-05-11 09:24:00,
2013-05-11 05:29:00,62.5,60.8,29.80,SW,231,1.0,1.0,94,0.00,,OVC100,0.32,VWS V14.00,2013-05-11 09:29:00,
2013-05-11 05:30:00,62.5,60.8,29.80,SW,217,0.0,5.0,94,0.00,,CLR,0.32,VWS V14.00,2013-05-11 09:30:00,
2013-05-11 05:35:00,62.4,60.7,29.80,WSW,247,2.0,3.0,94,0.00,,OVC100,0.32,VWS V14.00,2013-05-11 09:35:00,
2013-05-11 05:40:00,62.4,60.7,29.80,South,183,1.0,3.0,94,0.00,,OVC100,0.32,VWS V14.00,2013-05-11 09:40:00,
2013-05-11 05:45:00,62.4,60.7,29.81,SSW,195,2.0,3.0,94,0.00,,OVC100,0.32,VWS V14.00,2013-05-11 09:45:00,
2013-05-11 05:50:00,62.4,60.7,29.81,SSW,207,2.0,3.0,94,0.00,,OVC100,0.32,VWS V14.00,2013-05-11 09:50:00,
2013-05-11 05:55:00,62.4,60.7,29.81,SSW,205,1.0,3.0,94,0.00,,OVC100,0.32,VWS V14.00,2013-05-11 09:55:00,
2013-05-11 06:00:00,62.4,60.7,29.81,SSW,193,1.0,2.0,94,0.00,,OVC100,0.32,VWS V14.00,2013-05-11 10:00:00,
2013-05-11 06:05:00,62.3,60.6,29.81,SSW,192,1.0,2.0,94,0.00,,-RA,0.32,VWS V14.00,2013-05-11 10:05:00,
2013-05-11 06:10:00,62.3,60.6,29.80,SSW,201,2.0,3.0,94,0.00,,-RA,0.32,VWS V14.00,2013-05-11 10:10:00,
2013-05-11 06:15:00,62.3,60.6,29.81,SSW,196,1.0,3.0,94,0.00,,-RA,0.32,VWS V14.00,2013-05-11 10:15:00,
2013-05-11 06:20:00,62.3,60.6,29.81,SSW,200,2.0,3.0,94,0.00,,-RA,0.32,VWS V14.00,2013-05-11 10:20:00,
2013-05-11 06:25:00,62.4,60.7,29.81,SE,138,3.0,4.0,94,0.00,,-RA,0.32,VWS V14.00,2013-05-11 10:25:00,
2013-05-11 06:30:00,62.4,60.7,29.80,SSW,212,2.0,3.0,94,0.00,,-RA,0.32,VWS V14.00,2013-05-11 10:30:00,
2013-05-11 06:35:00,62.4,60.7,29.80,SSW,194,2.0,3.0,94,0.00,,-RA,0.32,VWS V14.00,2013-05-11 10:35:00,
2013-05-11 06:40:00,62.4,60.7,29.81,South,187,3.0,4.0,94,0.00,,-RA,0.32,VWS V14.00,2013-05-11 10:40:00,
2013-05-11 06:45:00,62.5,60.8,29.81,South,191,2.0,4.0,94,0.00,,-RA,0.32,VWS V14.00,2013-05-11 10:45:00,
2013-05-11 06:50:00,62.6,60.8,29.81,South,188,3.0,4.0,94,0.00,,-RA,0.32,VWS V14.00,2013-05-11 10:50:00,
2013-05-11 06:55:00,62.7,61.0,29.81,SSW,205,2.0,7.0,94,0.00,,-RA,0.32,VWS V14.00,2013-05-11 10:55:00,
2013-05-11 07:00:00,62.8,61.0,29.81,South,171,4.0,5.0,94,0.00,,-RA,0.32,VWS V14.00,2013-05-11 11:00:00,
2013-05-11 07:05:00,62.9,61.2,29.81,South,184,3.0,5.0,94,0.00,,OVC110,0.32,VWS V14.00,2013-05-11 11:05:00,
2013-05-11 07:10:00,63.0,61.2,29.81,South,188,1.0,5.0,94,0.00,,OVC110,0.32,VWS V14.00,2013-05-11 11:10:00,
2013-05-11 07:15:00,63.0,61.2,29.82,SSW,208,2.0,5.0,94,0.01,,OVC110,0.33,VWS V14.00,2013-05-11 11:15:00,
2013-05-11 07:20:00,63.1,61.3,29.82,South,176,2.0,6.0,94,0.01,,OVC110,0.33,VWS V14.00,2013-05-11 11:20:00,
2013-05-11 07:25:00,63.1,61.3,29.83,SSW,210,3.0,6.0,94,0.01,,OVC110,0.33,VWS V14.00,2013-05-11 11:25:00,
2013-05-11 07:30:00,63.1,61.3,29.82,South,187,3.0,3.0,94,0.02,,RA,0.34,VWS V14.00,2013-05-11 11:30:00,
2013-05-11 07:36:00,63.0,61.2,29.82,South,173,2.0,5.0,94,0.04,,RA,0.36,VWS V14.00,2013-05-11 11:36:00,
2013-05-11 07:41:00,62.9,61.2,29.82,SSW,200,1.0,5.0,94,0.04,,RA,0.36,VWS V14.00,2013-05-11 11:41:00,
2013-05-11 07:46:00,62.9,61.2,29.81,SSW,211,3.0,5.0,94,0.04,,RA,0.36,VWS V14.00,2013-05-11 11:46:00,
2013-05-11 07:51:00,63.0,61.2,29.82,SSW,201,2.0,5.0,94,0.04,,-RA,0.36,VWS V14.00,2013-05-11 11:51:00,
2013-05-11 07:56:00,63.0,61.2,29.82,SSW,203,2.0,5.0,94,0.04,,-RA,0.36,VWS V14.00,2013-05-11 11:56:00,
2013-05-11 08:00:00,63.1,61.3,29.82,South,188,3.0,5.0,94,0.05,,CLR,0.37,VWS V14.00,2013-05-11 12:00:00,
2013-05-11 08:01:00,63.2,61.5,29.82,SSW,201,1.0,3.0,94,0.05,,OVC070,0.37,VWS V14.00,2013-05-11 12:01:00,
2013-05-11 08:06:00,63.2,61.5,29.81,WSW,238,1.0,4.0,94,0.06,,OVC070,0.38,VWS V14.00,2013-05-11 12:06:00,
2013-05-11 08:11:00,63.3,61.5,29.82,SSW,200,1.0,5.0,94,0.06,,OVC070,0.38,VWS V14.00,2013-05-11 12:11:00,
2013-05-11 08:16:00,63.4,61.7,29.82,SSW,211,1.0,5.0,94,0.06,,OVC070,0.38,VWS V14.00,2013-05-11 12:16:00,
2013-05-11 08:21:00,63.5,61.8,29.81,South,190,2.0,5.0,94,0.06,,OVC070,0.38,VWS V14.00,2013-05-11 12:21:00,
2013-05-11 08:26:00,63.7,62.0,29.81,SSW,207,2.0,5.0,94,0.06,,OVC070,0.38,VWS V14.00,2013-05-11 12:26:00,
2013-05-11 08:30:00,63.9,62.1,29.81,SSW,203,2.0,5.0,94,0.06,,CLR,0.38,VWS V14.00,2013-05-11 12:30:00,
2013-05-11 08:31:00,64.1,62.3,29.81,SSW,194,4.0,4.0,94,0.04,,OVC070,0.38,VWS V14.00,2013-05-11 12:31:00,
2013-05-11 08:36:00,64.6,62.8,29.80,SSW,206,2.0,4.0,94,0.04,,OVC070,0.38,VWS V14.00,2013-05-11 12:36:00,
2013-05-11 08:41:00,65.5,63.4,29.80,SSE,167,4.0,5.0,93,0.04,,BKN100,0.38,VWS V14.00,2013-05-11 12:41:00,
2013-05-11 08:46:00,66.3,64.2,29.80,South,181,3.0,7.0,93,0.04,,BKN100,0.38,VWS V14.00,2013-05-11 12:46:00,
2013-05-11 08:51:00,66.5,63.5,29.80,South,190,5.0,8.0,90,0.04,,BKN100,0.38,VWS V14.00,2013-05-11 12:51:00,
2013-05-11 08:56:00,66.4,63.4,29.80,South,188,3.0,8.0,90,0.04,,BKN100,0.38,VWS V14.00,2013-05-11 12:56:00,
2013-05-11 09:00:00,66.4,63.7,29.80,SSW,203,3.0,8.0,91,0.04,,CLR,0.38,VWS V14.00,2013-05-11 13:00:00,
2013-05-11 09:01:00,66.5,63.8,29.80,SSW,204,4.0,5.0,91,0.01,,BKN085,0.38,VWS V14.00,2013-05-11 13:01:00,
2013-05-11 09:06:00,66.7,63.7,29.80,South,181,5.0,6.0,90,0.01,,BKN085,0.38,VWS V14.00,2013-05-11 13:06:00,
2013-05-11 09:11:00,66.9,64.2,29.80,SSW,211,4.0,7.0,91,0.01,,BKN080,0.38,VWS V14.00,2013-05-11 13:11:00,
2013-05-11 09:16:00,67.1,63.8,29.79,South,174,4.0,7.0,89,0.01,,BKN080,0.38,VWS V14.00,2013-05-11 13:16:00,
2013-05-11 09:21:00,67.2,63.8,29.80,South,188,2.0,8.0,89,0.01,,BKN080,0.38,VWS V14.00,2013-05-11 13:21:00,
2013-05-11 09:26:00,67.4,64.1,29.80,SSW,193,4.0,8.0,89,0.01,,BKN080,0.38,VWS V14.00,2013-05-11 13:26:00,
2013-05-11 09:30:00,67.4,64.1,29.80,South,187,6.0,9.0,89,0.01,,CLR,0.38,VWS V14.00,2013-05-11 13:30:00,
2013-05-11 09:31:00,67.4,64.1,29.80,SSW,200,4.0,7.0,89,0.00,,BKN080,0.38,VWS V14.00,2013-05-11 13:31:00,
2013-05-11 09:37:00,67.2,63.5,29.80,SSW,206,7.0,9.0,88,0.00,,BKN080,0.38,VWS V14.00,2013-05-11 13:37:00,
2013-05-11 09:42:00,67.3,64.0,29.80,SSW,197,4.0,10.0,89,0.00,,BKN080,0.38,VWS V14.00,2013-05-11 13:42:00,
2013-05-11 09:47:00,67.2,63.5,29.80,South,172,7.0,10.0,88,0.00,,BKN080,0.38,VWS V14.00,2013-05-11 13:47:00,
2013-05-11 09:52:00,67.2,63.5,29.80,SW,215,3.0,10.0,88,0.00,,OVC017,0.38,VWS V14.00,2013-05-11 13:52:00,
2013-05-11 09:57:00,67.1,63.8,29.79,SSE,167,4.0,10.0,89,0.00,,OVC017,0.38,VWS V14.00,2013-05-11 13:57:00,
2013-05-11 10:00:00,67.1,63.4,29.79,SSE,155,4.0,10.0,88,0.00,,CLR,0.38,VWS V14.00,2013-05-11 14:00:00,
2013-05-11 10:02:00,67.2,63.8,29.79,SSE,155,3.0,6.0,89,0.00,,BKN017,0.38,VWS V14.00,2013-05-11 14:02:00,
2013-05-11 10:07:00,67.3,64.0,29.79,South,186,5.0,6.0,89,0.00,,BKN017,0.38,VWS V14.00,2013-05-11 14:07:00,
2013-05-11 10:12:00,67.5,64.2,29.78,South,170,4.0,7.0,89,0.00,,BKN017,0.38,VWS V14.00,2013-05-11 14:12:00,
2013-05-11 10:17:00,67.5,63.5,29.78,South,184,4.0,7.0,87,0.00,,BKN017,0.38,VWS V14.00,2013-05-11 14:17:00,
2013-05-11 10:22:00,67.5,63.8,29.78,South,186,2.0,7.0,88,0.00,,BKN017,0.38,VWS V14.00,2013-05-11 14:22:00,
2013-05-11 10:27:00,67.6,64.2,29.78,SSW,203,3.0,7.0,89,0.00,,BKN017,0.38,VWS V14.00,2013-05-11 14:27:00,
2013-05-11 10:30:00,67.7,64.3,29.78,South,190,2.0,7.0,89,0.00,,CLR,0.38,VWS V14.00,2013-05-11 14:30:00,
2013-05-11 10:32:00,67.7,64.0,29.78,South,176,4.0,5.0,88,0.00,,BKN017,0.38,VWS V14.00,2013-05-11 14:32:00,
2013-05-11 10:37:00,67.6,63.9,29.78,South,191,2.0,5.0,88,0.00,,BKN017,0.38,VWS V14.00,2013-05-11 14:37:00,
2013-05-11 10:42:00,67.6,63.9,29.78,SW,224,7.0,7.0,88,0.00,,BKN017,0.38,VWS V14.00,2013-05-11 14:42:00,
2013-05-11 10:47:00,67.6,63.9,29.78,SSW,204,4.0,7.0,88,0.00,,BKN017,0.38,VWS V14.00,2013-05-11 14:47:00,
2013-05-11 10:52:00,67.7,64.0,29.77,SW,216,2.0,7.0,88,0.00,,BKN017,0.38,VWS V14.00,2013-05-11 14:52:00,
2013-05-11 10:57:00,67.7,64.0,29.78,South,190,3.0,7.0,88,0.00,,BKN017,0.38,VWS V14.00,2013-05-11 14:57:00,
2013-05-11 11:00:00,67.7,64.0,29.78,South,186,2.0,7.0,88,0.00,,CLR,0.38,VWS V14.00,2013-05-11 15:00:00,
2013-05-11 11:02:00,67.8,64.1,29.77,SSE,167,2.0,4.0,88,0.00,,OVC020,0.38,VWS V14.00,2013-05-11 15:02:00,
2013-05-11 11:07:00,67.8,64.1,29.77,SW,229,2.0,5.0,88,0.00,,OVC020,0.38,VWS V14.00,2013-05-11 15:07:00,
2013-05-11 11:12:00,67.9,64.5,29.78,SSW,212,1.0,5.0,89,0.00,,OVC020,0.38,VWS V14.00,2013-05-11 15:12:00,
2013-05-11 11:17:00,68.0,64.3,29.78,South,178,2.0,5.0,88,0.00,,OVC020,0.38,VWS V14.00,2013-05-11 15:17:00,
2013-05-11 11:22:00,67.9,64.2,29.78,West,266,1.0,5.0,88,0.00,,OVC021,0.38,VWS V14.00,2013-05-11 15:22:00,
2013-05-11 11:27:00,68.0,64.3,29.78,SW,229,1.0,5.0,88,0.00,,OVC021,0.38,VWS V14.00,2013-05-11 15:27:00,
2013-05-11 11:30:00,68.0,64.6,29.78,SSW,197,1.0,5.0,89,0.00,,CLR,0.38,VWS V14.00,2013-05-11 15:30:00,
2013-05-11 11:32:00,68.2,64.8,29.78,SSE,155,2.0,3.0,89,0.00,,OVC021,0.38,VWS V14.00,2013-05-11 15:32:00,
2013-05-11 11:37:00,68.4,64.7,29.78,SSW,198,0.0,3.0,88,0.00,,OVC021,0.38,VWS V14.00,2013-05-11 15:37:00,
2013-05-11 11:43:00,68.7,65.0,29.78,SSW,208,2.0,3.0,88,0.00,,OVC021,0.38,VWS V14.00,2013-05-11 15:43:00,
2013-05-11 11:48:00,69.3,65.9,29.78,SSE,163,2.0,3.0,89,0.00,,OVC021,0.38,VWS V14.00,2013-05-11 15:48:00,
2013-05-11 11:53:00,69.7,65.7,29.78,SSW,203,2.0,5.0,87,0.00,,OVC021,0.38,VWS V14.00,2013-05-11 15:53:00,
2013-05-11 11:58:00,70.2,66.2,29.78,SSW,195,3.0,5.0,87,0.00,,OVC021,0.38,VWS V14.00,2013-05-11 15:58:00,
2013-05-11 12:00:00,70.3,65.2,29.78,West,276,1.0,7.0,84,0.00,,CLR,0.38,VWS V14.00,2013-05-11 16:00:00,
2013-05-11 12:03:00,70.4,65.3,29.78,South,177,4.0,7.0,84,0.00,,OVC028,0.38,VWS V14.00,2013-05-11 16:03:00,
2013-05-11 12:08:00,70.4,65.3,29.78,SE,135,4.0,7.0,84,0.00,,OVC028,0.38,VWS V14.00,2013-05-11 16:08:00,
2013-05-11 12:13:00,70.4,65.0,29.77,South,177,4.0,7.0,83,0.00,,OVC028,0.38,VWS V14.00,2013-05-11 16:13:00,
2013-05-11 12:18:00,70.4,65.3,29.77,SSW,200,2.0,7.0,84,0.00,,OVC028,0.38,VWS V14.00,2013-05-11 16:18:00,
2013-05-11 12:23:00,70.6,64.8,29.77,SSW,210,3.0,11.0,82,0.00,,OVC028,0.38,VWS V14.00,2013-05-11 16:23:00,
2013-05-11 12:28:00,70.5,65.1,29.77,SSW,200,1.0,11.0,83,0.00,,OVC028,0.38,VWS V14.00,2013-05-11 16:28:00,
2013-05-11 12:30:00,70.6,65.2,29.77,SSW,204,2.0,11.0,83,0.00,,CLR,0.38,VWS V14.00,2013-05-11 16:30:00,
2013-05-11 12:33:00,70.7,65.3,29.77,SSW,195,4.0,6.0,83,0.00,,OVC028,0.38,VWS V14.00,2013-05-11 16:33:00,
2013-05-11 12:38:00,70.9,65.5,29.77,SSW,204,2.0,6.0,83,0.00,,OVC028,0.38,VWS V14.00,2013-05-11 16:38:00,
2013-05-11 12:43:00,70.8,65.0,29.76,SW,217,1.0,6.0,82,0.00,,OVC028,0.38,VWS V14.00,2013-05-11 16:43:00,
2013-05-11 12:48:00,70.9,64.8,29.76,SW,214,2.0,6.0,81,0.00,,OVC028,0.38,VWS V14.00,2013-05-11 16:48:00,
2013-05-11 12:53:00,70.7,64.9,29.76,South,170,3.0,6.0,82,0.00,,OVC028,0.38,VWS V14.00,2013-05-11 16:53:00,
2013-05-11 12:58:00,70.5,65.1,29.75,SSW,201,3.0,6.0,83,0.00,,OVC028,0.38,VWS V14.00,2013-05-11 16:58:00,
2013-05-11 13:00:00,70.5,65.1,29.75,SSW,198,2.0,6.0,83,0.00,,CLR,0.38,VWS V14.00,2013-05-11 17:00:00,
2013-05-11 13:03:00,70.5,65.8,29.75,SSW,193,3.0,4.0,85,0.00,,-RA,0.38,VWS V14.00,2013-05-11 17:03:00,
2013-05-11 13:08:00,70.4,65.3,29.75,South,186,4.0,5.0,84,0.00,,-RA,0.38,VWS V14.00,2013-05-11 17:08:00,
2013-05-11 13:13:00,70.4,65.7,29.74,South,183,2.0,5.0,85,0.00,,-RA,0.38,VWS V14.00,2013-05-11 17:13:00,
2013-05-11 13:18:00,70.6,66.2,29.74,SSW,213,2.0,5.0,86,0.00,,-RA,0.38,VWS V14.00,2013-05-11 17:18:00,
2013-05-11 13:23:00,70.7,65.6,29.74,South,191,4.0,5.0,84,0.00,,-RA,0.38,VWS V14.00,2013-05-11 17:23:00,
2013-05-11 13:28:00,71.0,65.9,29.74,SSE,167,4.0,7.0,84,0.00,,-RA,0.38,VWS V14.00,2013-05-11 17:28:00,
2013-05-11 13:30:00,71.1,66.0,29.74,SSW,196,2.0,7.0,84,0.00,,CLR,0.38,VWS V14.00,2013-05-11 17:30:00,
2013-05-11 13:34:00,71.4,66.7,29.74,South,181,3.0,6.0,85,0.00,,BKN034,0.38,VWS V14.00,2013-05-11 17:34:00,
2013-05-11 13:39:00,71.8,66.7,29.73,SSW,207,2.0,7.0,84,0.00,,BKN034,0.38,VWS V14.00,2013-05-11 17:39:00,
2013-05-11 13:44:00,71.9,66.1,29.73,South,188,3.0,7.0,82,0.00,,BKN034,0.38,VWS V14.00,2013-05-11 17:44:00,
2013-05-11 13:49:00,71.8,65.7,29.73,SSW,211,1.0,7.0,81,0.00,,BKN034,0.38,VWS V14.00,2013-05-11 17:49:00,
2013-05-11 13:54:00,72.2,66.4,29.73,South,190,2.0,7.0,82,0.00,,BKN034,0.38,VWS V14.00,2013-05-11 17:54:00,
2013-05-11 13:59:00,73.1,66.6,29.72,SSW,208,5.0,7.0,80,0.00,,BKN034,0.38,VWS V14.00,2013-05-11 17:59:00,
2013-05-11 14:00:00,73.3,67.5,29.72,SSW,200,3.0,7.0,82,0.00,,CLR,0.38,VWS V14.00,2013-05-11 18:00:00,
2013-05-11 14:04:00,74.3,67.0,29.72,SW,215,3.0,5.0,78,0.00,,BKN100,0.38,VWS V14.00,2013-05-11 18:04:00,
2013-05-11 14:09:00,74.6,66.9,29.72,SSE,149,2.0,9.0,77,0.00,,BKN100,0.38,VWS V14.00,2013-05-11 18:09:00,
2013-05-11 14:14:00,74.8,66.0,29.72,SSW,194,5.0,9.0,74,0.00,,BKN100,0.38,VWS V14.00,2013-05-11 18:14:00,
2013-05-11 14:19:00,75.0,66.6,29.72,WNW,283,6.0,9.0,75,0.00,,BKN100,0.38,VWS V14.00,2013-05-11 18:19:00,
2013-05-11 14:24:00,74.9,66.4,29.71,South,170,3.0,10.0,75,0.00,,BKN100,0.38,VWS V14.00,2013-05-11 18:24:00,
2013-05-11 14:29:00,75.5,67.4,29.71,SSW,193,3.0,10.0,76,0.00,,BKN100,0.38,VWS V14.00,2013-05-11 18:29:00,
2013-05-11 14:30:00,75.6,67.5,29.71,NW,309,1.0,10.0,76,0.00,,CLR,0.38,VWS V14.00,2013-05-11 18:30:00,
2013-05-11 14:34:00,76.1,66.4,29.71,WSW,252,2.0,5.0,72,0.00,,BKN100,0.38,VWS V14.00,2013-05-11 18:34:00,
2013-05-11 14:39:00,76.0,65.9,29.71,SE,143,3.0,6.0,71,0.00,,BKN100,0.38,VWS V14.00,2013-05-11 18:39:00,
2013-05-11 14:44:00,75.5,65.8,29.71,SSW,204,2.0,6.0,72,0.00,,BKN033,0.38,VWS V14.00,2013-05-11 18:44:00,
2013-05-11 14:49:00,75.1,66.6,29.70,SSW,211,3.0,6.0,75,0.00,,BKN033,0.38,VWS V14.00,2013-05-11 18:49:00,
2013-05-11 14:54:00,74.8,65.2,29.70,SSE,148,4.0,8.0,72,0.00,,BKN040,0.38,VWS V14.00,2013-05-11 18:54:00,
2013-05-11 14:59:00,74.7,65.1,29.70,South,180,5.0,8.0,72,0.00,,BKN040,0.38,VWS V14.00,2013-05-11 18:59:00,
2013-05-11 15:00:00,74.7,65.1,29.70,SSW,204,4.0,8.0,72,0.00,,CLR,0.38,VWS V14.00,2013-05-11 19:00:00,
2013-05-11 15:04:00,74.6,65.8,29.70,WNW,291,2.0,5.0,74,0.00,,BKN048,0.38,VWS V14.00,2013-05-11 19:04:00,
2013-05-11 15:09:00,74.5,65.3,29.70,West,262,2.0,5.0,73,0.00,,BKN048,0.38,VWS V14.00,2013-05-11 19:09:00,
2013-05-11 15:14:00,73.3,61.7,29.72,WNW,291,6.0,14.0,67,0.00,,BKN048,0.38,VWS V14.00,2013-05-11 19:14:00,
2013-05-11 15:19:00,69.8,59.6,29.72,NW,319,4.0,14.0,70,0.01,,BKN048,0.39,VWS V14.00,2013-05-11 19:19:00,
2013-05-11 15:24:00,67.7,59.5,29.72,WNW,301,2.0,14.0,75,0.01,,BKN048,0.39,VWS V14.00,2013-05-11 19:24:00,
2013-05-11 15:29:00,66.6,59.9,29.72,NW,304,6.0,14.0,79,0.01,,BKN048,0.39,VWS V14.00,2013-05-11 19:29:00,
2013-05-11 15:30:00,66.6,59.9,29.72,NW,304,6.0,14.0,79,0.01,,CLR,0.39,VWS V14.00,2013-05-11 19:30:00,
2013-05-11 15:34:00,65.5,59.9,29.72,NNE,29,2.0,7.0,82,0.01,,BKN048,0.39,VWS V14.00,2013-05-11 19:34:00,
2013-05-11 15:39:00,64.7,59.8,29.72,NW,319,4.0,8.0,84,0.01,,BKN048,0.39,VWS V14.00,2013-05-11 19:39:00,
2013-05-11 15:45:00,64.2,59.9,29.72,NNW,347,2.0,8.0,86,0.01,,BKN048,0.39,VWS V14.00,2013-05-11 19:45:00,
2013-05-11 15:50:00,63.9,60.3,29.72,NNW,344,4.0,8.0,88,0.02,,BKN048,0.40,VWS V14.00,2013-05-11 19:50:00,
2013-05-11 15:55:00,63.7,60.4,29.72,West,274,1.0,8.0,89,0.04,,BKN048,0.42,VWS V14.00,2013-05-11 19:55:00,
2013-05-11 16:00:00,63.7,60.7,29.71,South,183,1.0,1.0,90,0.04,,BKN048,0.42,VWS V14.00,2013-05-11 20:00:00,
2013-05-11 16:05:00,63.9,60.9,29.72,SW,231,2.0,3.0,90,0.04,,OVC060,0.42,VWS V14.00,2013-05-11 20:05:00,
2013-05-11 16:10:00,64.2,61.2,29.71,WNW,292,0.0,3.0,90,0.05,,OVC060,0.43,VWS V14.00,2013-05-11 20:10:00,
2013-05-11 16:15:00,65.0,62.3,29.71,SW,224,1.0,3.0,91,0.05,,OVC060,0.43,VWS V14.00,2013-05-11 20:15:00,
2013-05-11 16:20:00,66.3,63.9,29.71,WSW,248,0.0,3.0,92,0.05,,OVC060,0.43,VWS V14.00,2013-05-11 20:20:00,
2013-05-11 16:25:00,67.6,63.3,29.72,NW,309,1.0,3.0,86,0.05,,OVC060,0.43,VWS V14.00,2013-05-11 20:25:00,
2013-05-11 16:30:00,68.4,63.4,29.72,North,351,2.0,4.0,84,0.04,,OVC060,0.43,VWS V14.00,2013-05-11 20:30:00,
2013-05-11 16:35:00,69.2,63.8,29.71,NNW,329,2.0,4.0,83,0.04,,OVC060,0.43,VWS V14.00,2013-05-11 20:35:00,
2013-05-11 16:40:00,69.3,63.6,29.72,ENE,65,1.0,6.0,82,0.04,,OVC060,0.43,VWS V14.00,2013-05-11 20:40:00,
2013-05-11 16:45:00,69.6,63.5,29.72,WNW,284,0.0,6.0,81,0.04,,OVC060,0.43,VWS V14.00,2013-05-11 20:45:00,
2013-05-11 16:50:00,69.7,64.0,29.71,SSW,203,1.0,6.0,82,0.04,,OVC060,0.43,VWS V14.00,2013-05-11 20:50:00,
2013-05-11 16:55:00,70.4,64.7,29.71,SW,226,1.0,6.0,82,0.04,,OVC060,0.43,VWS V14.00,2013-05-11 20:55:00,
2013-05-11 17:00:00,70.5,63.7,29.71,SW,221,0.0,1.0,79,0.01,,OVC060,0.43,VWS V14.00,2013-05-11 21:00:00,
2013-05-11 17:05:00,71.1,63.5,29.71,NNW,336,1.0,2.0,77,0.01,,BKN110,0.43,VWS V14.00,2013-05-11 21:05:00,
2013-05-11 17:10:00,71.1,63.2,29.71,NW,323,2.0,3.0,76,0.01,,BKN110,0.43,VWS V14.00,2013-05-11 21:10:00,
2013-05-11 17:15:00,70.6,62.7,29.71,NW,318,1.0,3.0,76,0.01,,BKN110,0.43,VWS V14.00,2013-05-11 21:15:00,
2013-05-11 17:20:00,70.6,63.0,29.70,SSW,208,1.0,3.0,77,0.01,,BKN110,0.43,VWS V14.00,2013-05-11 21:20:00,
2013-05-11 17:25:00,70.4,62.8,29.71,West,275,2.0,3.0,77,0.01,,BKN110,0.43,VWS V14.00,2013-05-11 21:25:00,
2013-05-11 17:30:00,70.0,62.8,29.70,NW,316,3.0,3.0,78,0.00,,BKN110,0.43,VWS V14.00,2013-05-11 21:30:00,
2013-05-11 17:35:00,69.5,62.7,29.70,NW,324,1.0,6.0,79,0.00,,BKN110,0.43,VWS V14.00,2013-05-11 21:35:00,
2013-05-11 17:41:00,69.1,63.0,29.71,NW,320,3.0,6.0,81,0.00,,BKN110,0.43,VWS V14.00,2013-05-11 21:41:00,
2013-05-11 17:46:00,68.6,62.9,29.71,NW,315,0.0,6.0,82,0.00,,BKN110,0.43,VWS V14.00,2013-05-11 21:46:00,
2013-05-11 17:51:00,68.3,62.9,29.71,NNW,345,1.0,6.0,83,0.00,,BKN110,0.43,VWS V14.00,2013-05-11 21:51:00,
2013-05-11 17:56:00,67.9,62.9,29.70,NW,307,2.0,6.0,84,0.00,,BKN110,0.43,VWS V14.00,2013-05-11 21:56:00,
2013-05-11 18:00:00,67.7,62.7,29.70,ENE,70,0.0,6.0,84,0.00,,CLR,0.43,VWS V14.00,2013-05-11 22:00:00,
2013-05-11 18:01:00,67.7,62.7,29.70,ENE,69,0.0,0.0,84,0.00,,CLR,0.43,VWS V14.00,2013-05-11 22:01:00,
2013-05-11 18:06:00,67.5,62.8,29.70,ESE,111,0.0,1.0,85,0.00,,CLR,0.43,VWS V14.00,2013-05-11 22:06:00,
2013-05-11 18:11:00,67.4,63.1,29.71,South,191,1.0,2.0,86,0.00,,CLR,0.43,VWS V14.00,2013-05-11 22:11:00,
2013-05-11 18:16:00,67.2,62.9,29.70,ESE,118,0.0,2.0,86,0.00,,CLR,0.43,VWS V14.00,2013-05-11 22:16:00,
2013-05-11 18:21:00,67.1,63.1,29.70,ESE,118,0.0,2.0,87,0.00,,CLR,0.43,VWS V14.00,2013-05-11 22:21:00,
2013-05-11 18:26:00,67.1,63.4,29.71,South,175,1.0,2.0,88,0.00,,CLR,0.43,VWS V14.00,2013-05-11 22:26:00,
2013-05-11 18:30:00,67.1,63.1,29.71,SSE,166,3.0,3.0,87,0.00,,CLR,0.43,VWS V14.00,2013-05-11 22:30:00,
2013-05-11 18:31:00,67.1,63.1,29.71,South,170,2.0,3.0,87,0.00,,CLR,0.43,VWS V14.00,2013-05-11 22:31:00,
2013-05-11 18:36:00,67.1,63.1,29.71,ESE,105,2.0,3.0,87,0.00,,CLR,0.43,VWS V14.00,2013-05-11 22:36:00,
2013-05-11 18:41:00,67.1,63.1,29.71,ENE,69,2.0,3.0,87,0.00,,CLR,0.43,VWS V14.00,2013-05-11 22:41:00,
2013-05-11 18:46:00,67.1,63.1,29.71,ENE,64,0.0,3.0,87,0.00,,CLR,0.43,VWS V14.00,2013-05-11 22:46:00,
2013-05-11 18:51:00,67.0,63.0,29.71,SSE,149,1.0,3.0,87,0.00,,CLR,0.43,VWS V14.00,2013-05-11 22:51:00,
2013-05-11 18:56:00,67.1,63.4,29.72,SSE,160,0.0,3.0,88,0.00,,CLR,0.43,VWS V14.00,2013-05-11 22:56:00,
2013-05-11 19:00:00,67.1,63.4,29.72,West,281,0.0,3.0,88,0.00,,CLR,0.43,VWS V14.00,2013-05-11 23:00:00,
2013-05-11 19:01:00,67.1,63.4,29.72,West,279,0.0,1.0,88,0.00,,SCT065,0.43,VWS V14.00,2013-05-11 23:01:00,
2013-05-11 19:06:00,66.9,63.6,29.72,SSE,156,2.0,2.0,89,0.00,,SCT065,0.43,VWS V14.00,2013-05-11 23:06:00,
2013-05-11 19:11:00,66.8,63.5,29.71,ESE,114,0.0,2.0,89,0.00,,SCT065,0.43,VWS V14.00,2013-05-11 23:11:00,
2013-05-11 19:16:00,66.6,63.6,29.71,NW,319,0.0,2.0,90,0.00,,SCT065,0.43,VWS V14.00,2013-05-11 23:16:00,
2013-05-11 19:21:00,66.4,63.4,29.71,NNW,333,0.0,2.0,90,0.00,,SCT065,0.43,VWS V14.00,2013-05-11 23:21:00,
2013-05-11 19:26:00,66.3,63.3,29.71,NNW,333,1.0,2.0,90,0.00,,SCT065,0.43,VWS V14.00,2013-05-11 23:26:00,
2013-05-11 19:30:00,66.3,63.3,29.71,NNW,333,1.0,2.0,90,0.00,,CLR,0.43,VWS V14.00,2013-05-11 23:30:00,
2013-05-11 19:31:00,66.3,63.3,29.71,NNW,333,0.0,1.0,90,0.00,,SCT065,0.43,VWS V14.00,2013-05-11 23:31:00,
2013-05-11 19:36:00,66.2,63.5,29.71,NNW,333,0.0,1.0,91,0.00,,SCT065,0.43,VWS V14.00,2013-05-11 23:36:00,
2013-05-11 19:41:00,66.2,63.5,29.71,NNW,333,0.0,1.0,91,0.00,,SCT065,0.43,VWS V14.00,2013-05-11 23:41:00,
2013-05-11 19:47:00,66.0,63.3,29.71,NNW,333,0.0,1.0,91,0.00,,SCT065,0.43,VWS V14.00,2013-05-11 23:47:00,
2013-05-11 19:52:00,65.8,63.4,29.72,NNW,333,0.0,1.0,92,0.00,,SCT065,0.43,VWS V14.00,2013-05-11 23:52:00,
2013-05-11 19:57:00,65.7,63.3,29.72,NNW,333,0.0,1.0,92,0.00,,SCT065,0.43,VWS V14.00,2013-05-11 23:57:00,
2013-05-11 20:00:00,65.6,63.2,29.72,NNW,333,0.0,1.0,92,0.00,,CLR,0.43,VWS V14.00,2013-05-12 00:00:00,
2013-05-11 20:02:00,65.6,63.2,29.72,NNW,335,0.0,2.0,92,0.00,,OVC110,0.43,VWS V14.00,2013-05-12 00:02:00,
2013-05-11 20:07:00,66.0,63.0,29.72,SSW,207,2.0,11.0,90,0.00,,OVC110,0.43,VWS V14.00,2013-05-12 00:07:00,
2013-05-11 20:12:00,66.1,62.8,29.72,WSW,241,0.0,11.0,89,0.00,,OVC110,0.43,VWS V14.00,2013-05-12 00:12:00,
2013-05-11 20:17:00,66.2,62.5,29.72,WSW,248,1.0,11.0,88,0.00,,OVC110,0.43,VWS V14.00,2013-05-12 00:17:00,
2013-05-11 20:22:00,66.3,62.6,29.73,NW,311,1.0,11.0,88,0.00,,OVC110,0.43,VWS V14.00,2013-05-12 00:22:00,
2013-05-11 20:27:00,66.2,61.9,29.72,NW,319,0.0,11.0,86,0.00,,OVC110,0.43,VWS V14.00,2013-05-12 00:27:00,
2013-05-11 20:30:00,66.2,61.9,29.72,NW,307,0.0,11.0,86,0.00,,CLR,0.43,VWS V14.00,2013-05-12 00:30:00,
2013-05-11 20:32:00,66.1,61.8,29.72,NW,308,0.0,0.0,86,0.00,,OVC110,0.43,VWS V14.00,2013-05-12 00:32:00,
2013-05-11 20:37:00,65.8,61.2,29.73,SW,219,0.0,1.0,85,0.00,,OVC110,0.43,VWS V14.00,2013-05-12 00:37:00,
2013-05-11 20:42:00,65.6,61.3,29.73,South,174,1.0,2.0,86,0.00,,OVC110,0.43,VWS V14.00,2013-05-12 00:42:00,
2013-05-11 20:47:00,65.4,60.5,29.72,South,175,0.0,2.0,84,0.00,,OVC110,0.43,VWS V14.00,2013-05-12 00:47:00,
2013-05-11 20:52:00,65.2,60.6,29.72,South,174,0.0,2.0,85,0.00,,OVC110,0.43,VWS V14.00,2013-05-12 00:52:00,
2013-05-11 20:57:00,64.9,60.6,29.72,South,174,0.0,2.0,86,0.00,,OVC110,0.43,VWS V14.00,2013-05-12 00:57:00,
2013-05-11 21:00:00,64.8,60.8,29.71,South,174,0.0,2.0,87,0.00,,CLR,0.43,VWS V14.00,2013-05-12 01:00:00,
2013-05-11 21:02:00,64.7,60.8,29.72,South,175,0.0,1.0,87,0.00,,BKN095,0.43,VWS V14.00,2013-05-12 01:02:00,
2013-05-11 21:07:00,64.3,60.7,29.72,South,174,0.0,1.0,88,0.00,,BKN095,0.43,VWS V14.00,2013-05-12 01:07:00,
2013-05-11 21:12:00,63.9,60.3,29.72,WSW,258,0.0,1.0,88,0.00,,BKN095,0.43,VWS V14.00,2013-05-12 01:12:00,
2013-05-11 21:17:00,63.7,59.8,29.72,WSW,246,0.0,2.0,87,0.00,,BKN095,0.43,VWS V14.00,2013-05-12 01:17:00,
2013-05-11 21:22:00,63.5,59.9,29.72,WSW,246,0.0,2.0,88,0.00,,BKN095,0.43,VWS V14.00,2013-05-12 01:22:00,
2013-05-11 21:27:00,63.2,59.9,29.72,WSW,246,0.0,2.0,89,0.00,,BKN095,0.43,VWS V14.00,2013-05-12 01:27:00,
2013-05-11 21:30:00,63.0,59.7,29.72,WSW,246,0.0,2.0,89,0.00,,CLR,0.43,VWS V14.00,2013-05-12 01:30:00,
2013-05-11 21:32:00,62.8,59.5,29.72,WSW,246,0.0,0.0,89,0.00,,BKN095,0.43,VWS V14.00,2013-05-12 01:32:00,
2013-05-11 21:37:00,62.4,59.1,29.72,WSW,246,0.0,0.0,89,0.00,,BKN095,0.43,VWS V14.00,2013-05-12 01:37:00,
2013-05-11 21:42:00,62.1,59.1,29.72,WSW,245,0.0,0.0,90,0.00,,BKN095,0.43,VWS V14.00,2013-05-12 01:42:00,
2013-05-11 21:48:00,61.8,58.8,29.72,WSW,246,0.0,0.0,90,0.00,,BKN095,0.43,VWS V14.00,2013-05-12 01:48:00,
2013-05-11 21:53:00,61.7,59.0,29.73,WSW,246,0.0,1.0,91,0.00,,BKN095,0.43,VWS V14.00,2013-05-12 01:53:00,
2013-05-11 21:58:00,61.7,59.0,29.73,WSW,246,0.0,1.0,91,0.00,,BKN095,0.43,VWS V14.00,2013-05-12 01:58:00,
2013-05-11 22:00:00,61.7,58.7,29.73,WSW,246,0.0,1.0,90,0.00,,CLR,0.43,VWS V14.00,2013-05-12 02:00:00,
2013-05-11 22:03:00,61.7,58.7,29.73,WSW,246,0.0,0.0,90,0.00,,BKN110,0.43,VWS V14.00,2013-05-12 02:03:00,
2013-05-11 22:08:00,61.7,58.7,29.73,WSW,245,0.0,0.0,90,0.00,,BKN110,0.43,VWS V14.00,2013-05-12 02:08:00,
2013-05-11 22:13:00,61.6,58.6,29.72,WSW,246,0.0,0.0,90,0.00,,BKN110,0.43,VWS V14.00,2013-05-12 02:13:00,
2013-05-11 22:18:00,61.6,58.6,29.72,WSW,245,0.0,0.0,90,0.00,,BKN110,0.43,VWS V14.00,2013-05-12 02:18:00,
2013-05-11 22:23:00,61.6,58.6,29.72,WSW,246,0.0,1.0,90,0.00,,BKN110,0.43,VWS V14.00,2013-05-12 02:23:00,
2013-05-11 22:28:00,61.6,58.6,29.72,WSW,246,0.0,1.0,90,0.00,,BKN110,0.43,VWS V14.00,2013-05-12 02:28:00,
2013-05-11 22:30:00,61.6,58.6,29.72,WSW,246,0.0,1.0,90,0.00,,CLR,0.43,VWS V14.00,2013-05-12 02:30:00,
2013-05-11 22:33:00,61.6,58.6,29.72,WSW,246,0.0,0.0,90,0.00,,BKN110,0.43,VWS V14.00,2013-05-12 02:33:00,
2013-05-11 22:38:00,61.4,58.5,29.72,WSW,246,0.0,1.0,90,0.00,,BKN110,0.43,VWS V14.00,2013-05-12 02:38:00,
2013-05-11 22:43:00,61.2,58.2,29.72,WSW,247,0.0,1.0,90,0.00,,BKN110,0.43,VWS V14.00,2013-05-12 02:43:00,
2013-05-11 22:48:00,61.1,58.2,29.72,WSW,246,0.0,1.0,90,0.00,,BKN110,0.43,VWS V14.00,2013-05-12 02:48:00,
2013-05-11 22:53:00,60.9,58.3,29.73,WSW,246,0.0,1.0,91,0.00,,BKN110,0.43,VWS V14.00,2013-05-12 02:53:00,
2013-05-11 22:58:00,61.0,58.4,29.73,WSW,245,0.0,1.0,91,0.00,,BKN110,0.43,VWS V14.00,2013-05-12 02:58:00,
2013-05-11 23:00:00,61.0,58.4,29.73,WSW,246,0.0,1.0,91,0.00,,CLR,0.43,VWS V14.00,2013-05-12 03:00:00,
2013-05-11 23:03:00,60.9,58.3,29.72,WSW,246,0.0,0.0,91,0.00,,BKN080,0.43,VWS V14.00,2013-05-12 03:03:00,
2013-05-11 23:08:00,60.7,58.1,29.72,WSW,246,0.0,1.0,91,0.00,,BKN080,0.43,VWS V14.00,2013-05-12 03:08:00,
2013-05-11 23:13:00,60.8,58.2,29.72,WSW,246,1.0,1.0,91,0.00,,BKN080,0.43,VWS V14.00,2013-05-12 03:13:00,
2013-05-11 23:18:00,60.7,58.1,29.72,WSW,245,0.0,1.0,91,0.00,,BKN080,0.43,VWS V14.00,2013-05-12 03:18:00,
2013-05-11 23:23:00,60.7,58.1,29.72,WSW,246,0.0,1.0,91,0.00,,BKN080,0.43,VWS V14.00,2013-05-12 03:23:00,
2013-05-11 23:28:00,60.7,58.1,29.73,SW,215,1.0,1.0,91,0.00,,BKN080,0.43,VWS V14.00,2013-05-12 03:28:00,
2013-05-11 23:30:00,60.7,58.1,29.73,SSW,211,1.0,1.0,91,0.00,,CLR,0.43,VWS V14.00,2013-05-12 03:30:00,
2013-05-11 23:33:00,60.9,58.3,29.73,SSW,211,0.0,1.0,91,0.00,,BKN080,0.43,VWS V14.00,2013-05-12 03:33:00,
2013-05-11 23:38:00,61.1,58.2,29.74,SSW,200,1.0,2.0,90,0.00,,BKN080,0.43,VWS V14.00,2013-05-12 03:38:00,
2013-05-11 23:43:00,61.6,58.0,29.74,WSW,238,2.0,5.0,88,0.00,,BKN080,0.43,VWS V14.00,2013-05-12 03:43:00,
2013-05-11 23:48:00,61.9,57.7,29.74,SW,226,0.0,5.0,86,0.00,,BKN080,0.43,VWS V14.00,2013-05-12 03:48:00,
2013-05-11 23:54:00,62.2,57.6,29.73,SW,232,1.0,5.0,85,0.00,,BKN080,0.43,VWS V14.00,2013-05-12 03:54:00,
2013-05-11 23:59:00,62.4,57.2,29.72,North,359,1.0,5.0,83,0.00,,BKN080,0.43,VWS V14.00,2013-05-12 03:59:00,